createdAt,value
2022-10-11T00:02:03.583Z,98900.69
2022-10-11T00:04:30.336Z,98899.56
2022-10-11T00:06:56.906Z,98905.59
2022-10-11T00:09:23.569Z,98906.25
2022-10-11T00:11:50.264Z,98899.38
2022-10-11T00:14:16.907Z,98896.13
2022-10-11T00:16:44.558Z,98895.97
2022-10-11T00:19:11.635Z,98891.66
2022-10-11T00:21:38.257Z,98893.44
2022-10-11T00:24:22.987Z,98897.72
2022-10-11T00:26:49.583Z,98897.88
2022-10-11T00:29:16.297Z,98892.69
2022-10-11T00:31:42.875Z,98894.56
2022-10-11T00:34:12.193Z,98887.88
2022-10-11T00:36:38.985Z,98889.06
2022-10-11T00:39:05.910Z,98900.34
2022-10-11T00:41:32.673Z,98905.63
2022-10-11T00:44:10.680Z,98897.97
2022-10-11T00:46:37.838Z,98896.22
2022-10-11T00:49:19.581Z,98901.47
2022-10-11T00:51:51.644Z,98899.84
2022-10-11T00:54:23.390Z,98895.53
2022-10-11T00:57:03.245Z,98891.19
2022-10-11T00:59:34.917Z,98890.25
2022-10-11T01:02:01.770Z,98887.69
2022-10-11T01:04:28.647Z,98884.28
2022-10-11T01:06:56.034Z,98881.69
2022-10-11T01:09:22.784Z,98876.50
2022-10-11T01:11:52.238Z,98880.69
2022-10-11T01:14:33.565Z,98877.97
2022-10-11T01:17:09.140Z,98870.91
2022-10-11T01:19:35.671Z,98872.75
2022-10-11T01:22:46.719Z,98876.91
2022-10-11T01:25:20.994Z,98878.03
2022-10-11T01:28:02.158Z,98873.72
2022-10-11T01:30:34.496Z,98881.47
2022-10-11T01:33:17.053Z,98879.34
2022-10-11T01:35:48.833Z,98889.94
2022-10-11T01:38:35.816Z,98884.25
2022-10-11T01:41:18.736Z,98887.91
2022-10-11T01:43:46.382Z,98877.81
2022-10-11T01:46:13.678Z,98879.75
2022-10-11T01:48:51.537Z,98880.75
2022-10-11T01:51:22.968Z,98879.63
2022-10-11T01:54:07.482Z,98885.31
2022-10-11T01:57:01.662Z,98894.47
2022-10-11T01:59:41.012Z,98893.53
2022-10-11T02:02:38.100Z,98894.34
2022-10-11T02:05:21.044Z,98894.56
2022-10-11T02:08:09.376Z,98890.38
2022-10-11T02:10:50.146Z,98887.84
2022-10-11T02:13:38.766Z,98888.53
2022-10-11T02:16:11.105Z,98890.03
2022-10-11T02:18:47.080Z,98889.13
2022-10-11T02:21:18.389Z,98882.28
2022-10-11T02:23:53.645Z,98876.91
2022-10-11T02:26:22.003Z,98878.50
2022-10-11T02:28:51.310Z,98875.81
2022-10-11T02:31:19.496Z,98877.53
2022-10-11T02:33:56.865Z,98874.84
2022-10-11T02:36:31.296Z,98866.44
2022-10-11T02:39:04.377Z,98871.53
2022-10-11T02:41:39.729Z,98874.09
2022-10-11T02:44:32.518Z,98880.84
2022-10-11T02:47:02.381Z,98888.84
2022-10-11T02:49:31.731Z,98893.44
2022-10-11T02:51:59.452Z,98899.66
2022-10-11T02:54:26.464Z,98890.44
2022-10-11T02:56:53.442Z,98893.81
2022-10-11T02:59:20.119Z,98900.75
2022-10-11T03:01:46.919Z,98900.66
2022-10-11T03:04:14.091Z,98897.16
2022-10-11T03:06:43.436Z,98900.41
2022-10-11T03:09:10.038Z,98894.31
2022-10-11T03:11:36.778Z,98901.44
2022-10-11T03:14:03.440Z,98904.06
2022-10-11T03:16:29.968Z,98903.03
2022-10-11T03:18:56.495Z,98907.28
2022-10-11T03:21:25.192Z,98908.88
2022-10-11T03:23:51.749Z,98906.44
2022-10-11T03:26:18.358Z,98901.28
2022-10-11T03:28:45.171Z,98902.19
2022-10-11T03:31:12.191Z,98905.56
2022-10-11T03:33:38.984Z,98910.78
2022-10-11T03:36:06.174Z,98905.69
2022-10-11T03:38:33.587Z,98918.50
2022-10-11T03:41:01.297Z,98913.38
2022-10-11T03:43:28.035Z,98929.66
2022-10-11T03:45:54.636Z,98934.16
2022-10-11T03:48:21.202Z,98932.69
2022-10-11T03:50:48.889Z,98934.47
2022-10-11T03:53:15.561Z,98925.97
2022-10-11T03:55:42.150Z,98925.00
2022-10-11T03:58:09.340Z,98928.44
2022-10-11T04:00:36.700Z,98924.06
2022-10-11T04:03:06.470Z,98928.31
2022-10-11T04:05:33.260Z,98925.06
2022-10-11T04:07:59.808Z,98927.91
2022-10-11T04:10:26.345Z,98928.47
2022-10-11T04:12:52.937Z,98935.16
2022-10-11T04:15:19.621Z,98941.97
2022-10-11T04:17:46.261Z,98943.69
2022-10-11T04:20:12.845Z,98938.66
2022-10-11T04:22:39.445Z,98936.25
2022-10-11T04:25:07.157Z,98942.13
2022-10-11T04:27:34.010Z,98943.88
2022-10-11T04:30:00.781Z,98945.63
2022-10-11T04:32:27.845Z,98940.44
2022-10-11T04:34:54.460Z,98948.22
2022-10-11T04:37:21.003Z,98952.63
2022-10-11T04:39:47.549Z,98955.84
2022-10-11T04:42:14.128Z,98959.84
2022-10-11T04:44:40.626Z,98954.56
2022-10-11T04:47:07.165Z,98953.66
2022-10-11T04:49:33.724Z,98963.84
2022-10-11T04:52:00.486Z,98963.13
2022-10-11T04:54:27.117Z,98969.78
2022-10-11T04:56:53.761Z,98961.22
2022-10-11T04:59:20.436Z,98965.34
2022-10-11T05:01:47.231Z,98962.78
2022-10-11T05:04:13.837Z,98960.25
2022-10-11T05:06:40.472Z,98961.22
2022-10-11T05:09:07.150Z,98967.94
2022-10-11T05:11:33.741Z,98967.94
2022-10-11T05:14:00.425Z,98970.34
2022-10-11T05:16:27.295Z,98978.28
2022-10-11T05:18:53.867Z,98975.59
2022-10-11T05:21:25.837Z,98981.47
2022-10-11T05:23:53.850Z,98977.06
2022-10-11T05:26:20.936Z,98975.41
2022-10-11T05:28:48.142Z,98979.22
2022-10-11T05:31:15.660Z,98983.53
2022-10-11T05:33:42.918Z,98987.06
2022-10-11T05:36:10.503Z,98979.44
2022-10-11T05:38:38.295Z,98992.25
2022-10-11T05:41:05.833Z,98984.13
2022-10-11T05:43:32.747Z,98991.72
2022-10-11T05:45:59.688Z,98994.91
2022-10-11T05:48:28.738Z,98994.84
2022-10-11T05:51:03.052Z,98999.13
2022-10-11T05:53:30.122Z,99000.00
2022-10-11T05:55:56.884Z,99000.66
2022-10-11T05:58:23.679Z,99000.78
2022-10-11T06:00:50.346Z,99012.75
2022-10-11T06:03:17.155Z,99006.03
2022-10-11T06:05:43.743Z,99010.31
2022-10-11T06:08:10.820Z,99009.41
2022-10-11T06:10:38.435Z,99013.69
2022-10-11T06:13:05.734Z,99010.53
2022-10-11T06:15:32.777Z,99022.41
2022-10-11T06:17:59.407Z,99029.00
2022-10-11T06:20:26.984Z,99031.41
2022-10-11T06:22:53.855Z,99028.16
2022-10-11T06:25:20.536Z,99037.44
2022-10-11T06:27:47.232Z,99036.69
2022-10-11T06:30:14.756Z,99036.03
2022-10-11T06:32:41.313Z,99039.81
2022-10-11T06:35:08.276Z,99035.34
2022-10-11T06:37:34.861Z,99038.81
2022-10-11T06:40:01.495Z,99037.94
2022-10-11T06:42:28.035Z,99038.00
2022-10-11T06:44:54.651Z,99040.44
2022-10-11T06:47:21.176Z,99033.19
2022-10-11T06:49:50.411Z,99038.22
2022-10-11T06:52:16.948Z,99047.38
2022-10-11T06:54:45.044Z,99049.06
2022-10-11T06:57:12.083Z,99049.63
2022-10-11T06:59:38.733Z,99051.97
2022-10-11T07:02:05.315Z,99056.66
2022-10-11T07:04:33.796Z,99054.75
2022-10-11T07:07:00.459Z,99058.72
2022-10-11T07:09:27.033Z,99059.91
2022-10-11T07:11:53.536Z,99055.47
2022-10-11T07:14:20.101Z,99056.88
2022-10-11T07:16:46.683Z,99052.75
2022-10-11T07:19:13.464Z,99051.44
2022-10-11T07:21:40.010Z,99047.97
2022-10-11T07:24:06.934Z,99048.72
2022-10-11T07:26:38.853Z,99059.94
2022-10-11T07:29:08.101Z,99058.25
2022-10-11T07:31:37.210Z,99060.38
2022-10-11T07:34:03.856Z,99065.63
2022-10-11T07:36:30.504Z,99073.94
2022-10-11T07:38:57.039Z,99078.84
2022-10-11T07:41:23.545Z,99070.69
2022-10-11T07:43:51.028Z,99083.75
2022-10-11T07:46:18.363Z,99088.06
2022-10-11T07:48:45.030Z,99088.97
2022-10-11T07:51:18.050Z,99101.44
2022-10-11T07:53:56.120Z,99103.88
2022-10-11T07:56:31.499Z,99095.94
2022-10-11T07:59:00.814Z,99100.69
2022-10-11T08:01:28.379Z,99104.47
2022-10-11T08:03:57.004Z,99104.13
2022-10-11T08:06:29.220Z,99102.53
2022-10-11T08:08:57.071Z,99105.38
2022-10-11T08:11:31.585Z,99107.25
2022-10-11T08:13:58.919Z,99104.66
2022-10-11T08:16:25.751Z,99102.97
2022-10-11T08:18:54.417Z,99099.13
2022-10-11T08:21:21.177Z,99101.34
2022-10-11T08:23:47.892Z,99100.88
2022-10-11T08:26:14.820Z,99107.34
2022-10-11T08:28:41.462Z,99106.41
2022-10-11T08:31:10.096Z,99099.69
2022-10-11T08:33:36.795Z,99103.25
2022-10-11T08:36:06.051Z,99104.66
2022-10-11T08:38:34.233Z,99106.88
2022-10-11T08:41:02.034Z,99116.25
2022-10-11T08:43:56.571Z,99124.09
2022-10-11T08:46:28.440Z,99116.84
2022-10-11T08:48:55.491Z,99112.44
2022-10-11T08:51:30.749Z,99120.19
2022-10-11T08:54:07.569Z,99106.66
2022-10-11T08:56:37.345Z,99113.00
2022-10-11T08:59:12.594Z,99110.75
2022-10-11T09:01:53.297Z,99101.69
2022-10-11T09:04:20.132Z,99107.41
2022-10-11T09:07:11.776Z,99107.63
2022-10-11T09:09:59.996Z,99103.16
2022-10-11T09:13:00.093Z,99096.31
2022-10-11T09:15:48.201Z,99105.44
2022-10-11T09:18:33.368Z,99103.41
2022-10-11T09:21:15.165Z,99106.09
2022-10-11T09:24:47.348Z,99105.34
2022-10-11T09:27:57.213Z,99098.34
2022-10-11T09:30:19.154Z,99111.75
2022-10-11T09:33:11.533Z,99116.56
2022-10-11T09:35:42.805Z,99123.69
2022-10-11T09:38:32.698Z,99126.06
2022-10-11T09:41:09.261Z,99121.44
2022-10-11T09:43:36.049Z,99121.44
2022-10-11T09:46:03.080Z,99126.28
2022-10-11T09:48:41.378Z,99121.63
2022-10-11T09:51:28.883Z,99125.56
2022-10-11T09:54:01.169Z,99132.59
2022-10-11T09:56:33.711Z,99129.94
2022-10-11T09:59:18.796Z,99133.75
2022-10-11T10:01:45.396Z,99135.66
2022-10-11T10:04:16.938Z,99137.44
2022-10-11T10:06:43.573Z,99137.69
2022-10-11T10:09:33.225Z,99137.75
2022-10-11T10:12:12.136Z,99146.56
2022-10-11T10:14:54.379Z,99137.50
2022-10-11T10:17:24.010Z,99139.72
2022-10-11T10:19:54.734Z,99141.41
2022-10-11T10:22:22.891Z,99141.75
2022-10-11T10:24:51.382Z,99139.16
2022-10-11T10:27:29.795Z,99136.09
2022-10-11T10:30:00.237Z,99140.72
2022-10-11T10:32:56.376Z,99133.13
2022-10-11T10:35:30.421Z,99139.84
2022-10-11T10:38:26.190Z,99137.72
2022-10-11T10:40:58.136Z,99133.75
2022-10-11T10:43:33.990Z,99135.31
2022-10-11T10:46:18.845Z,99148.06
2022-10-11T10:52:26.149Z,99138.28
2022-10-11T10:55:12.752Z,99139.03
2022-10-11T10:58:03.130Z,99141.00
2022-10-11T11:00:41.773Z,99130.91
2022-10-11T11:03:24.631Z,99121.09
2022-10-11T11:06:06.558Z,99134.28
2022-10-11T11:08:42.584Z,99133.00
2022-10-11T11:11:36.011Z,99128.66
2022-10-11T11:14:19.119Z,99123.63
2022-10-11T11:17:15.414Z,99126.34
2022-10-11T11:19:44.572Z,99126.03
2022-10-11T11:22:35.629Z,99122.84
2022-10-11T11:25:14.878Z,99116.91
2022-10-11T11:28:10.216Z,99120.69
2022-10-11T11:30:52.488Z,99127.59
2022-10-11T11:33:51.382Z,99116.69
2022-10-11T11:36:27.617Z,99126.69
2022-10-11T11:38:59.765Z,99122.63
2022-10-11T11:41:31.057Z,99121.44
2022-10-11T11:44:31.344Z,99121.91
2022-10-11T11:47:12.515Z,99119.91
2022-10-11T11:52:20.315Z,99113.00
2022-10-11T11:55:03.916Z,99117.44
2022-10-11T11:57:52.253Z,99118.91
2022-10-11T12:00:25.837Z,99118.16
2022-10-11T12:03:11.353Z,99121.03
2022-10-11T12:05:37.969Z,99112.53
2022-10-11T12:08:24.400Z,99106.28
2022-10-11T12:10:50.858Z,99103.50
2022-10-11T12:13:37.199Z,99096.53
2022-10-11T12:16:03.669Z,99109.44
2022-10-11T12:18:31.948Z,99103.06
2022-10-11T12:21:21.889Z,99097.50
2022-10-11T12:23:53.824Z,99103.44
2022-10-11T12:26:29.842Z,99095.81
2022-10-11T12:29:02.429Z,99098.94
2022-10-11T12:31:36.087Z,99095.09
2022-10-11T12:34:08.592Z,99096.28
2022-10-11T12:36:38.281Z,99095.94
2022-10-11T12:39:20.416Z,99089.53
2022-10-11T12:41:50.246Z,99082.38
2022-10-11T12:44:22.796Z,99085.84
2022-10-11T12:46:55.072Z,99079.09
2022-10-11T12:49:21.691Z,99089.28
2022-10-11T12:52:20.616Z,99084.72
2022-10-11T12:55:25.563Z,99081.84
2022-10-11T12:57:59.184Z,99075.09
2022-10-11T13:00:30.009Z,99073.75
2022-10-11T13:03:04.771Z,99087.13
2022-10-11T13:05:35.929Z,99078.66
2022-10-11T13:08:05.716Z,99079.75
2022-10-11T13:10:42.484Z,99086.44
2022-10-11T13:13:27.276Z,99078.63
2022-10-11T13:15:56.162Z,99075.34
2022-10-11T13:18:25.135Z,99084.47
2022-10-11T13:20:52.027Z,99087.06
2022-10-11T13:23:38.192Z,99084.75
2022-10-11T13:26:05.047Z,99081.50
2022-10-11T13:28:36.301Z,99083.25
2022-10-11T13:31:04.641Z,99084.91
2022-10-11T13:33:35.659Z,99090.19
2022-10-11T13:36:06.152Z,99085.09
2022-10-11T13:38:36.196Z,99084.78
2022-10-11T13:41:09.084Z,99073.56
2022-10-11T13:43:36.800Z,99085.44
2022-10-11T13:46:05.142Z,99082.03
2022-10-11T13:48:32.390Z,99088.94
2022-10-11T13:51:14.013Z,99078.63
2022-10-11T13:54:04.417Z,99078.84
2022-10-11T13:56:52.315Z,99082.81
2022-10-11T13:59:22.219Z,99079.94
2022-10-11T14:01:52.007Z,99082.75
2022-10-11T14:04:18.865Z,99078.44
2022-10-11T14:06:51.360Z,99083.72
2022-10-11T14:09:26.463Z,99084.94
2022-10-11T14:11:53.948Z,99082.69
2022-10-11T14:14:34.185Z,99078.97
2022-10-11T14:17:15.354Z,99074.44
2022-10-11T14:19:43.872Z,99075.88
2022-10-11T14:22:14.981Z,99074.09
2022-10-11T14:24:42.280Z,99074.19
2022-10-11T14:27:17.525Z,99078.69
2022-10-11T14:29:55.634Z,99070.09
2022-10-11T14:32:34.250Z,99074.13
2022-10-11T14:35:01.233Z,99076.31
2022-10-11T14:37:27.766Z,99083.53
2022-10-11T14:39:54.472Z,99080.88
2022-10-11T14:42:21.091Z,99076.63
2022-10-11T14:44:47.622Z,99082.03
2022-10-11T14:47:16.833Z,99079.78
2022-10-11T14:49:43.392Z,99082.41
2022-10-11T14:52:13.762Z,99084.25
2022-10-11T14:54:40.916Z,99078.50
2022-10-11T14:57:07.550Z,99088.38
2022-10-11T14:59:37.079Z,99086.97
2022-10-11T15:02:06.144Z,99081.22
2022-10-11T15:04:33.124Z,99079.09
2022-10-11T15:07:00.063Z,99077.81
2022-10-11T15:09:26.620Z,99076.09
2022-10-11T15:11:54.866Z,99079.44
2022-10-11T15:14:25.292Z,99082.91
2022-10-11T15:16:52.643Z,99084.66
2022-10-11T15:19:22.538Z,99075.97
2022-10-11T15:21:49.516Z,99085.31
2022-10-11T15:24:16.819Z,99085.31
2022-10-11T15:26:44.109Z,99095.81
2022-10-11T15:29:11.836Z,99088.44
2022-10-11T15:31:39.488Z,99092.19
2022-10-11T15:34:06.121Z,99093.19
2022-10-11T15:36:32.699Z,99095.00
2022-10-11T15:38:59.328Z,99101.00
2022-10-11T15:41:28.038Z,99102.22
2022-10-11T15:43:54.618Z,99096.22
2022-10-11T15:46:23.300Z,99095.25
2022-10-11T15:48:51.736Z,99099.88
2022-10-11T15:51:18.998Z,99106.63
2022-10-11T15:53:45.691Z,99104.91
2022-10-11T15:56:18.996Z,99103.44
2022-10-11T15:58:45.961Z,99102.94
2022-10-11T16:01:16.151Z,99104.78
2022-10-11T16:03:43.566Z,99109.16
2022-10-11T16:06:10.888Z,99112.50
2022-10-11T16:08:38.335Z,99122.25
2022-10-11T16:11:06.771Z,99114.44
2022-10-11T16:13:33.835Z,99125.00
2022-10-11T16:16:02.358Z,99124.16
2022-10-11T16:18:34.902Z,99117.34
2022-10-11T16:21:08.296Z,99125.41
2022-10-11T16:23:35.368Z,99117.84
2022-10-11T16:26:08.934Z,99118.78
2022-10-11T16:28:36.116Z,99128.25
2022-10-11T16:31:10.292Z,99131.84
2022-10-11T16:33:45.963Z,99136.28
2022-10-11T16:36:36.673Z,99136.47
2022-10-11T16:39:12.015Z,99137.41
2022-10-11T16:41:38.785Z,99143.63
2022-10-11T16:44:05.824Z,99141.22
2022-10-11T16:46:33.276Z,99145.78
2022-10-11T16:49:00.102Z,99143.50
2022-10-11T16:51:27.006Z,99141.91
2022-10-11T16:53:53.592Z,99152.34
2022-10-11T16:56:24.144Z,99153.16
2022-10-11T16:58:53.060Z,99156.47
2022-10-11T17:01:20.277Z,99155.75
2022-10-11T17:03:47.065Z,99158.69
2022-10-11T17:06:13.596Z,99164.44
2022-10-11T17:08:40.178Z,99161.31
2022-10-11T17:11:06.859Z,99165.09
2022-10-11T17:13:33.594Z,99168.69
2022-10-11T17:16:00.385Z,99174.88
2022-10-11T17:18:27.159Z,99175.91
2022-10-11T17:21:03.043Z,99174.44
2022-10-11T17:23:29.709Z,99171.28
2022-10-11T17:25:56.257Z,99173.00
2022-10-11T17:28:22.981Z,99181.13
2022-10-11T17:30:57.965Z,99176.19
2022-10-11T17:33:26.415Z,99185.03
2022-10-11T17:35:54.634Z,99182.50
2022-10-11T17:38:22.438Z,99176.44
2022-10-11T17:41:02.125Z,99177.72
2022-10-11T17:43:28.963Z,99176.09
2022-10-11T17:46:00.484Z,99183.38
2022-10-11T17:48:28.279Z,99180.91
2022-10-11T17:50:55.077Z,99175.00
2022-10-11T17:53:21.911Z,99178.59
2022-10-11T17:55:54.184Z,99176.13
2022-10-11T17:58:20.721Z,99182.41
2022-10-11T18:00:47.345Z,99187.63
2022-10-11T18:03:14.085Z,99184.25
2022-10-11T18:05:41.963Z,99183.44
2022-10-11T18:08:09.796Z,99183.41
2022-10-11T18:10:37.746Z,99182.66
2022-10-11T18:13:06.622Z,99191.50
2022-10-11T18:15:33.925Z,99188.22
2022-10-11T18:18:00.505Z,99191.63
2022-10-11T18:20:27.088Z,99196.94
2022-10-11T18:22:54.270Z,99200.44
2022-10-11T18:25:20.882Z,99205.69
2022-10-11T18:27:47.454Z,99207.56
2022-10-11T18:30:14.643Z,99206.41
2022-10-11T18:32:41.245Z,99203.78
2022-10-11T18:35:08.251Z,99209.00
2022-10-11T18:37:34.776Z,99210.97
2022-10-11T18:40:01.381Z,99208.28
2022-10-11T18:42:28.099Z,99207.31
2022-10-11T18:44:55.372Z,99206.81
2022-10-11T18:47:21.909Z,99206.13
2022-10-11T18:49:48.436Z,99212.22
2022-10-11T18:52:15.071Z,99205.38
2022-10-11T18:54:41.629Z,99202.06
2022-10-11T18:57:08.132Z,99197.75
2022-10-11T18:59:34.834Z,99193.72
2022-10-11T19:02:01.435Z,99195.69
2022-10-11T19:04:28.662Z,99193.91
2022-10-11T19:06:55.316Z,99195.69
2022-10-11T19:09:24.430Z,99198.47
2022-10-11T19:11:55.757Z,99193.28
2022-10-11T19:14:31.566Z,99199.53
2022-10-11T19:16:58.367Z,99191.94
2022-10-11T19:19:27.450Z,99193.75
2022-10-11T19:21:54.217Z,99192.06
2022-10-11T19:24:23.828Z,99197.34
2022-10-11T19:26:51.617Z,99200.03
2022-10-11T19:29:21.986Z,99203.56
2022-10-11T19:31:54.573Z,99208.69
2022-10-11T19:34:23.516Z,99208.72
2022-10-11T19:36:50.859Z,99211.38
2022-10-11T19:39:18.393Z,99218.34
2022-10-11T19:41:45.397Z,99211.34
2022-10-11T19:44:13.316Z,99214.94
2022-10-11T19:46:55.935Z,99209.78
2022-10-11T19:49:25.259Z,99210.81
2022-10-11T19:51:53.149Z,99217.72
2022-10-11T19:54:19.914Z,99215.03
2022-10-11T19:56:46.974Z,99221.16
2022-10-11T19:59:14.640Z,99218.53
2022-10-11T20:01:42.532Z,99214.31
2022-10-11T20:04:22.963Z,99217.94
2022-10-11T20:06:58.158Z,99222.41
2022-10-11T20:09:29.500Z,99212.00
2022-10-11T20:11:57.217Z,99217.19
2022-10-11T20:14:24.032Z,99213.81
2022-10-11T20:16:50.850Z,99212.25
2022-10-11T20:19:17.923Z,99216.47
2022-10-11T20:21:45.216Z,99212.31
2022-10-11T20:24:12.085Z,99210.56
2022-10-11T20:26:39.364Z,99209.72
2022-10-11T20:29:07.660Z,99219.19
2022-10-11T20:31:38.272Z,99214.06
2022-10-11T20:34:07.365Z,99211.50
2022-10-11T20:36:36.167Z,99214.06
2022-10-11T20:39:04.677Z,99214.88
2022-10-11T20:41:34.128Z,99217.59
2022-10-11T20:44:02.081Z,99217.56
2022-10-11T20:46:31.587Z,99216.63
2022-10-11T20:49:02.057Z,99220.22
2022-10-11T20:51:31.047Z,99221.03
2022-10-11T20:53:58.782Z,99217.63
2022-10-11T20:56:25.748Z,99218.66
2022-10-11T20:58:56.740Z,99222.19
2022-10-11T21:01:33.122Z,99215.25
2022-10-11T21:04:00.995Z,99223.03
2022-10-11T21:06:29.468Z,99223.19
2022-10-11T21:08:56.758Z,99229.16
2022-10-11T21:11:41.279Z,99213.78
2022-10-11T21:14:07.908Z,99230.94
2022-10-11T21:16:34.946Z,99219.78
2022-10-11T21:19:02.360Z,99229.34
2022-10-11T21:21:29.925Z,99226.81
2022-10-11T21:23:58.864Z,99229.41
2022-10-11T21:26:26.022Z,99230.19
2022-10-11T21:28:52.664Z,99224.25
2022-10-11T21:31:21.319Z,99232.84
2022-10-11T21:33:48.173Z,99229.44
2022-10-11T21:36:18.569Z,99232.81
2022-10-11T21:38:45.321Z,99235.44
2022-10-11T21:41:16.322Z,99233.72
2022-10-11T21:43:43.130Z,99227.78
2022-10-11T21:46:15.933Z,99229.66
2022-10-11T21:48:42.503Z,99227.91
2022-10-11T21:51:26.670Z,99226.09
2022-10-11T21:53:55.176Z,99232.22
2022-10-11T21:56:21.912Z,99240.03
2022-10-11T21:58:49.936Z,99228.94
2022-10-11T22:01:17.817Z,99228.09
2022-10-11T22:03:44.900Z,99235.00
2022-10-11T22:06:12.228Z,99229.94
2022-10-11T22:08:39.490Z,99230.78
2022-10-11T22:11:06.783Z,99228.28
2022-10-11T22:13:34.181Z,99227.56
2022-10-11T22:16:09.282Z,99227.53
2022-10-11T22:18:36.341Z,99231.03
2022-10-11T22:21:08.452Z,99234.59
2022-10-11T22:23:35.379Z,99232.94
2022-10-11T22:26:04.484Z,99238.09
2022-10-11T22:28:31.387Z,99234.66
2022-10-11T22:30:58.121Z,99237.25
2022-10-11T22:33:24.889Z,99239.06
2022-10-11T22:35:59.296Z,99232.19
2022-10-11T22:38:26.432Z,99236.47
2022-10-11T22:40:53.685Z,99230.47
2022-10-11T22:43:20.641Z,99233.03
2022-10-11T22:45:47.302Z,99231.31
2022-10-11T22:48:13.796Z,99235.69
2022-10-11T22:50:40.403Z,99244.28
2022-10-11T22:53:07.948Z,99239.13
2022-10-11T22:55:35.161Z,99234.94
2022-10-11T22:58:01.672Z,99237.53
2022-10-11T23:00:28.239Z,99235.00
2022-10-11T23:02:54.813Z,99234.09
2022-10-11T23:05:21.520Z,99232.44
2022-10-11T23:07:48.340Z,99232.41
2022-10-11T23:10:15.705Z,99241.00
2022-10-11T23:12:42.380Z,99235.75
2022-10-11T23:15:10.213Z,99234.03
2022-10-11T23:17:36.913Z,99241.84
2022-10-11T23:20:04.947Z,99238.38
2022-10-11T23:22:31.496Z,99243.53
2022-10-11T23:24:58.104Z,99238.41
2022-10-11T23:27:24.674Z,99238.47
2022-10-11T23:29:51.201Z,99236.91
2022-10-11T23:32:17.952Z,99232.56
2022-10-11T23:34:44.503Z,99232.66
2022-10-11T23:37:11.092Z,99235.19
2022-10-11T23:39:37.610Z,99226.59
2022-10-11T23:42:04.324Z,99233.47
2022-10-11T23:44:30.897Z,99228.31
2022-10-11T23:46:57.435Z,99232.59
2022-10-11T23:49:24.022Z,99243.78
2022-10-11T23:51:50.584Z,99236.13
2022-10-11T23:54:17.070Z,99244.81
2022-10-11T23:56:43.595Z,99237.97
2022-10-11T23:59:10.133Z,99243.16
